createdAt,value
2023-01-28T00:00:54.765Z,0.55
2023-01-28T00:03:40.547Z,0.42
2023-01-28T00:06:25.532Z,0.40
2023-01-28T00:09:10.955Z,0.38
2023-01-28T00:11:55.966Z,0.47
2023-01-28T00:14:41.238Z,0.50
2023-01-28T00:17:26.450Z,0.53
2023-01-28T00:20:12.481Z,0.51
2023-01-28T00:22:57.591Z,0.47
2023-01-28T00:25:42.746Z,0.49
2023-01-28T00:28:28.346Z,0.49
2023-01-28T00:31:19.934Z,0.47
2023-01-28T00:34:04.984Z,0.38
2023-01-28T00:36:57.844Z,0.33
2023-01-28T00:39:43.067Z,0.33
2023-01-28T00:42:28.220Z,0.27
2023-01-28T00:45:14.841Z,0.26
2023-01-28T00:48:00.545Z,0.28
2023-01-28T00:50:45.719Z,0.17
2023-01-28T00:53:34.542Z,0.13
2023-01-28T00:56:19.904Z,0.12
2023-01-28T00:59:05.596Z,0.14
2023-01-28T01:01:50.815Z,0.08
2023-01-28T01:04:36.218Z,0.09
2023-01-28T01:07:34.873Z,0.12
2023-01-28T01:10:20.181Z,0.14
2023-01-28T01:13:06.420Z,0.14
2023-01-28T01:16:09.646Z,0.11
2023-01-28T01:18:56.172Z,0.17
2023-01-28T01:21:41.586Z,0.22
2023-01-28T01:24:29.617Z,0.21
2023-01-28T01:27:15.323Z,0.27
2023-01-28T01:30:00.717Z,0.32
2023-01-28T01:32:46.067Z,0.43
2023-01-28T01:35:31.481Z,0.49
2023-01-28T01:38:16.804Z,0.57
2023-01-28T01:41:03.227Z,0.65
2023-01-28T01:43:54.708Z,0.71
2023-01-28T01:46:50.919Z,0.75
2023-01-28T01:49:36.724Z,0.77
2023-01-28T01:52:28.754Z,0.83
2023-01-28T01:55:18.309Z,0.86
2023-01-28T01:58:08.204Z,0.78
2023-01-28T02:00:53.655Z,0.73
2023-01-28T02:03:50.449Z,0.69
2023-01-28T02:06:37.864Z,0.68
2023-01-28T02:09:26.089Z,0.65
2023-01-28T02:12:21.331Z,0.71
2023-01-28T02:15:14.188Z,0.72
2023-01-28T02:18:00.142Z,0.72
2023-01-28T02:21:08.154Z,0.73
2023-01-28T02:24:18.522Z,0.81
2023-01-28T02:27:21.880Z,0.89
2023-01-28T02:30:33.354Z,1.00
2023-01-28T02:33:30.153Z,0.99
2023-01-28T02:36:27.795Z,1.03
2023-01-28T02:39:18.421Z,0.99
2023-01-28T02:42:13.523Z,1.04
2023-01-28T02:44:58.931Z,1.05
2023-01-28T02:48:00.097Z,1.04
2023-01-28T02:50:58.178Z,1.09
2023-01-28T02:53:54.905Z,1.13
2023-01-28T02:56:50.812Z,1.15
2023-01-28T03:00:06.308Z,1.12
2023-01-28T03:03:12.748Z,1.18
2023-01-28T03:06:06.987Z,1.15
2023-01-28T03:09:17.383Z,1.11
2023-01-28T03:12:29.123Z,1.07
2023-01-28T03:15:36.011Z,1.03
2023-01-28T03:19:08.383Z,1.10
2023-01-28T03:22:13.860Z,1.08
2023-01-28T03:25:18.683Z,1.08
2023-01-28T03:28:29.136Z,1.08
2023-01-28T03:31:39.468Z,1.10
2023-01-28T03:34:43.355Z,1.05
2023-01-28T03:37:29.892Z,1.02
2023-01-28T03:40:24.279Z,1.00
2023-01-28T03:43:09.534Z,0.99
2023-01-28T03:45:55.523Z,1.00
2023-01-28T03:48:41.451Z,0.99
2023-01-28T03:51:29.434Z,1.01
2023-01-28T03:54:14.763Z,1.06
2023-01-28T03:57:00.983Z,1.04
2023-01-28T03:59:46.243Z,0.98
2023-01-28T04:02:31.966Z,0.97
2023-01-28T04:05:19.804Z,0.96
2023-01-28T04:08:07.580Z,0.98
2023-01-28T04:11:20.115Z,1.01
2023-01-28T04:14:06.421Z,1.04
2023-01-28T04:17:02.539Z,1.04
2023-01-28T04:19:47.975Z,1.00
2023-01-28T04:22:34.755Z,1.04
2023-01-28T04:25:20.138Z,1.07
2023-01-28T04:28:05.498Z,1.09
2023-01-28T04:30:52.105Z,1.02
2023-01-28T04:33:55.567Z,1.07
2023-01-28T04:36:44.958Z,1.15
2023-01-28T04:39:42.917Z,1.22
2023-01-28T04:42:35.474Z,1.18
2023-01-28T04:45:29.544Z,1.15
2023-01-28T04:48:38.315Z,1.21
2023-01-28T04:51:34.788Z,1.28
2023-01-28T04:54:45.195Z,1.27
2023-01-28T04:57:30.671Z,1.28
2023-01-28T05:00:16.354Z,1.23
2023-01-28T05:03:01.863Z,1.26
2023-01-28T05:05:47.034Z,1.31
2023-01-28T05:08:40.800Z,1.30
2023-01-28T05:11:26.291Z,1.36
2023-01-28T05:14:17.116Z,1.32
2023-01-28T05:17:15.916Z,1.39
2023-01-28T05:20:01.654Z,1.43
2023-01-28T05:22:47.768Z,1.44
2023-01-28T05:25:41.228Z,1.47
2023-01-28T05:28:26.454Z,1.45
2023-01-28T05:31:14.919Z,1.45
2023-01-28T05:34:00.086Z,1.56
2023-01-28T05:36:45.319Z,1.56
2023-01-28T05:39:53.555Z,1.58
2023-01-28T05:42:39.005Z,1.57
2023-01-28T05:45:40.256Z,1.48
2023-01-28T05:48:34.354Z,1.53
2023-01-28T05:51:29.270Z,1.67
2023-01-28T05:54:16.042Z,1.66
2023-01-28T05:57:01.632Z,1.61
2023-01-28T05:59:47.760Z,1.54
2023-01-28T06:02:32.945Z,1.53
2023-01-28T06:05:19.445Z,1.53
2023-01-28T06:08:05.162Z,1.57
2023-01-28T06:10:50.406Z,1.66
2023-01-28T06:13:35.822Z,1.69
2023-01-28T06:16:44.119Z,1.71
2023-01-28T06:19:41.013Z,1.75
2023-01-28T06:22:27.075Z,1.72
2023-01-28T06:25:12.443Z,1.74
2023-01-28T06:27:57.607Z,1.69
2023-01-28T06:30:43.289Z,1.62
2023-01-28T06:33:29.440Z,1.59
2023-01-28T06:36:14.840Z,1.60
2023-01-28T06:39:00.218Z,1.60
2023-01-28T06:41:48.326Z,1.63
2023-01-28T06:44:33.423Z,1.66
2023-01-28T06:47:18.634Z,1.69
2023-01-28T06:50:04.532Z,1.69
2023-01-28T06:52:49.818Z,1.58
2023-01-28T06:55:35.381Z,1.53
2023-01-28T06:58:20.971Z,1.52
2023-01-28T07:01:06.577Z,1.58
2023-01-28T07:03:51.658Z,1.55
2023-01-28T07:06:37.310Z,1.52
2023-01-28T07:09:22.514Z,1.48
2023-01-28T07:12:08.332Z,1.45
2023-01-28T07:14:53.637Z,1.49
2023-01-28T07:17:41.959Z,1.51
2023-01-28T07:20:27.469Z,1.56
2023-01-28T07:23:12.742Z,1.51
2023-01-28T07:26:02.385Z,1.49
2023-01-28T07:28:47.816Z,1.51
2023-01-28T07:31:33.085Z,1.55
2023-01-28T07:34:18.300Z,1.57
2023-01-28T07:37:03.963Z,1.64
2023-01-28T07:39:49.278Z,1.68
2023-01-28T07:42:34.663Z,1.75
2023-01-28T07:45:31.923Z,1.69
2023-01-28T07:48:17.027Z,1.60
2023-01-28T07:51:02.630Z,1.62
2023-01-28T07:53:47.781Z,1.68
2023-01-28T07:56:33.069Z,1.74
2023-01-28T07:59:18.756Z,1.72
2023-01-28T08:02:04.288Z,1.71
2023-01-28T08:04:50.171Z,1.74
2023-01-28T08:07:35.275Z,1.82
2023-01-28T08:10:20.782Z,1.85
2023-01-28T08:13:06.789Z,1.80
2023-01-28T08:15:56.458Z,1.75
2023-01-28T08:18:41.537Z,1.78
2023-01-28T08:21:26.953Z,1.85
2023-01-28T08:24:12.262Z,1.99
2023-01-28T08:26:57.482Z,2.04
2023-01-28T08:29:43.619Z,2.17
2023-01-28T08:32:30.734Z,2.29
2023-01-28T08:35:16.276Z,2.40
2023-01-28T08:38:02.587Z,2.42
2023-01-28T08:40:50.454Z,2.33
2023-01-28T08:43:35.625Z,2.24
2023-01-28T08:46:21.031Z,2.14
2023-01-28T08:49:06.483Z,2.04
2023-01-28T08:51:52.115Z,2.05
2023-01-28T08:54:37.316Z,2.09
2023-01-28T08:57:22.418Z,2.05
2023-01-28T09:00:10.754Z,2.16
2023-01-28T09:02:55.997Z,2.29
2023-01-28T09:05:41.182Z,2.33
2023-01-28T09:08:26.337Z,2.35
2023-01-28T09:11:12.107Z,2.34
2023-01-28T09:13:58.065Z,2.36
2023-01-28T09:16:43.230Z,2.44
2023-01-28T09:19:29.583Z,2.44
2023-01-28T09:22:15.170Z,2.47
2023-01-28T09:25:00.196Z,2.42
2023-01-28T09:27:46.469Z,2.29
2023-01-28T09:30:32.146Z,2.27
2023-01-28T09:33:17.215Z,2.30
2023-01-28T09:36:05.527Z,2.40
2023-01-28T09:38:52.080Z,2.50
2023-01-28T09:41:49.785Z,2.62
2023-01-28T09:44:54.036Z,2.66
2023-01-28T09:47:50.666Z,2.72
2023-01-28T09:50:38.912Z,2.81
2023-01-28T09:53:33.435Z,2.89
2023-01-28T09:56:26.362Z,2.95
2023-01-28T09:59:22.808Z,2.86
2023-01-28T10:02:31.874Z,2.79
2023-01-28T10:05:54.348Z,2.86
2023-01-28T10:08:50.396Z,2.75
2023-01-28T10:11:50.929Z,2.68
2023-01-28T10:14:54.878Z,2.59
2023-01-28T10:17:49.569Z,2.59
2023-01-28T10:20:52.256Z,2.66
2023-01-28T10:23:49.022Z,2.68
2023-01-28T10:26:38.393Z,2.77
2023-01-28T10:29:28.755Z,2.78
2023-01-28T10:32:27.971Z,2.83
2023-01-28T10:35:13.518Z,2.85
2023-01-28T10:38:07.370Z,2.86
2023-01-28T10:40:52.901Z,2.85
2023-01-28T10:43:41.706Z,2.86
2023-01-28T10:46:32.006Z,2.76
2023-01-28T10:49:29.389Z,2.68
2023-01-28T10:52:16.120Z,2.67
2023-01-28T10:55:06.381Z,2.60
2023-01-28T10:57:53.115Z,2.53
2023-01-28T11:00:38.604Z,2.52
2023-01-28T11:03:28.627Z,2.61
2023-01-28T11:06:29.509Z,2.75
2023-01-28T11:09:42.091Z,2.86
2023-01-28T11:12:30.259Z,2.91
2023-01-28T11:15:18.449Z,2.97
2023-01-28T11:18:18.001Z,2.95
2023-01-28T11:21:06.241Z,2.96
2023-01-28T11:23:58.978Z,3.01
2023-01-28T11:26:49.253Z,3.00
2023-01-28T11:29:39.802Z,2.95
2023-01-28T11:32:26.799Z,3.09
2023-01-28T11:35:25.612Z,3.16
2023-01-28T11:38:19.336Z,3.06
2023-01-28T11:41:05.602Z,2.95
2023-01-28T11:43:51.835Z,2.83
2023-01-28T11:47:16.411Z,3.09
2023-01-28T11:50:20.937Z,2.95
2023-01-28T11:53:30.175Z,2.92
2023-01-28T11:56:20.294Z,3.03
2023-01-28T11:59:16.711Z,3.12
2023-01-28T12:02:10.152Z,3.51
2023-01-28T12:05:14.678Z,3.61
2023-01-28T12:08:18.767Z,3.57
2023-01-28T12:11:48.392Z,3.35
2023-01-28T12:15:07.021Z,3.34
2023-01-28T12:18:03.978Z,3.26
2023-01-28T12:21:11.072Z,3.16
2023-01-28T12:24:17.590Z,3.09
2023-01-28T12:27:19.603Z,3.08
2023-01-28T12:30:35.780Z,3.06
2023-01-28T12:33:43.253Z,3.15
2023-01-28T12:36:57.462Z,3.32
2023-01-28T12:39:59.909Z,3.23
2023-01-28T12:43:02.750Z,3.11
2023-01-28T12:45:55.318Z,3.13
2023-01-28T12:48:47.033Z,3.19
2023-01-28T12:51:44.285Z,3.24
2023-01-28T12:54:49.500Z,3.23
2023-01-28T12:57:35.932Z,3.38
2023-01-28T13:00:36.985Z,3.37
2023-01-28T13:03:26.910Z,3.30
2023-01-28T13:06:19.815Z,3.36
2023-01-28T13:09:19.129Z,3.41
2023-01-28T13:12:05.737Z,3.36
2023-01-28T13:14:54.053Z,3.37
2023-01-28T13:17:39.473Z,3.18
2023-01-28T13:20:46.538Z,3.16
2023-01-28T13:23:37.925Z,3.04
2023-01-28T13:26:24.766Z,3.08
2023-01-28T13:29:24.318Z,3.23
2023-01-28T13:32:31.923Z,3.35
2023-01-28T13:35:36.313Z,3.42
2023-01-28T13:38:22.048Z,3.49
2023-01-28T13:41:07.227Z,3.54
2023-01-28T13:43:52.662Z,3.59
2023-01-28T13:46:39.308Z,3.65
2023-01-28T13:49:44.085Z,3.59
2023-01-28T13:52:52.115Z,3.43
2023-01-28T13:55:44.848Z,3.30
2023-01-28T13:58:36.535Z,3.19
2023-01-28T14:01:47.957Z,3.12
2023-01-28T14:04:39.685Z,3.15
2023-01-28T14:07:41.270Z,3.15
2023-01-28T14:10:47.920Z,3.06
2023-01-28T14:13:36.129Z,3.09
2023-01-28T14:16:56.711Z,3.12
2023-01-28T14:19:44.535Z,3.21
2023-01-28T14:22:29.605Z,3.27
2023-01-28T14:25:27.768Z,3.39
2023-01-28T14:28:26.591Z,3.42
2023-01-28T14:31:18.335Z,3.46
2023-01-28T14:34:20.057Z,3.53
2023-01-28T14:37:09.456Z,3.50
2023-01-28T14:40:00.129Z,3.52
2023-01-28T14:42:49.748Z,3.55
2023-01-28T14:45:51.099Z,3.55
2023-01-28T14:48:54.448Z,3.49
2023-01-28T14:52:04.064Z,3.44
2023-01-28T14:54:58.884Z,3.38
2023-01-28T14:57:54.297Z,3.37
2023-01-28T15:00:39.802Z,3.35
2023-01-28T15:03:27.486Z,3.27
2023-01-28T15:06:16.049Z,3.28
2023-01-28T15:09:09.398Z,3.27
2023-01-28T15:11:58.414Z,3.28
2023-01-28T15:14:45.755Z,3.33
2023-01-28T15:17:32.055Z,3.25
2023-01-28T15:20:20.251Z,3.16
2023-01-28T15:23:07.857Z,3.16
2023-01-28T15:25:55.316Z,3.20
2023-01-28T15:28:42.941Z,3.26
2023-01-28T15:31:31.339Z,3.19
2023-01-28T15:34:20.728Z,3.18
2023-01-28T15:37:06.259Z,3.20
2023-01-28T15:40:06.428Z,3.21
2023-01-28T15:42:53.821Z,3.22
2023-01-28T15:45:41.040Z,3.16
2023-01-28T15:48:32.275Z,3.11
2023-01-28T15:51:25.047Z,3.08
2023-01-28T15:54:11.049Z,3.06
2023-01-28T15:56:57.201Z,3.05
2023-01-28T15:59:43.895Z,3.08
2023-01-28T16:02:31.861Z,3.13
2023-01-28T16:05:28.348Z,3.11
2023-01-28T16:08:39.864Z,3.03
2023-01-28T16:11:28.573Z,2.89
2023-01-28T16:14:31.227Z,2.78
2023-01-28T16:17:18.840Z,2.74
2023-01-28T16:20:07.700Z,2.63
2023-01-28T16:22:59.373Z,2.68
2023-01-28T16:25:44.556Z,2.66
2023-01-28T16:28:30.608Z,2.72
2023-01-28T16:31:15.872Z,2.72
2023-01-28T16:34:01.447Z,2.67
2023-01-28T16:36:46.777Z,2.64
2023-01-28T16:39:31.867Z,2.66
2023-01-28T16:42:17.572Z,2.68
2023-01-28T16:45:03.640Z,2.72
2023-01-28T16:47:49.596Z,2.73
2023-01-28T16:50:39.888Z,2.63
2023-01-28T16:53:32.600Z,2.62
2023-01-28T16:56:44.520Z,2.60
2023-01-28T16:59:28.520Z,2.53
2023-01-28T17:02:15.997Z,2.49
2023-01-28T17:05:01.460Z,2.46
2023-01-28T17:07:49.027Z,2.44
2023-01-28T17:10:34.860Z,2.44
2023-01-28T17:13:20.030Z,2.38
2023-01-28T17:16:05.950Z,2.36
2023-01-28T17:18:52.143Z,2.41
2023-01-28T17:21:37.316Z,2.37
2023-01-28T17:24:23.031Z,2.36
2023-01-28T17:27:09.663Z,2.34
2023-01-28T17:29:54.965Z,2.39
